Addison, Texas
Current Conditions -  °F | °C
As of 9:55 AM on Wednesday 28 Jan 2015 (Local Time) from KADS Reporting Station
Few Clouds Few Clouds  
Wind Chill: 66°   Ceiling: Unl
Heat Index: 66°   Visibility: 13mi
Dew Point: 39°   Wind: 10mph
Humidity: 37%   Direction: 170°S
Pressure: 30.12"   Gusts: NA
Location:  32.95°N, 96.82°W
Report Text: KADS 281555Z 17009KT 13SM FEW200 19/04 A3012
Loading
Personal Weather Stations






























Interactive Weather Map New forecast layout! Learn more

10-Day Weather Forecast

Advertisements
Track Severe Weather on mobile